Time;durP1;ratioP1;P1;durP2;ratioP2;P2;SDS_P1;SDS_P2;PMS_P1;PMS_P2;Temp;Humidity;BMP_temperature;BMP_pressure;BME280_temperature;BME280_humidity;BME280_pressure;Samples;Min_cycle;Max_cycle;Signal;HPM_P1;HPM_P2
2022/09/06 00:08:56;;;;;;;9.50;3.08;;;18.00;99.90;;;;;;20981963;28;20048;-74
2022/09/06 00:18:57;;;;;;;3.40;2.67;;;17.90;99.90;;;;;;20981591;28;20048;-75
2022/09/06 00:28:58;;;;;;;4.87;2.93;;;17.90;99.90;;;;;;20981359;28;20032;-75
2022/09/06 00:38:59;;;;;;;8.80;2.90;;;17.90;99.90;;;;;;20998823;28;20032;-75
2022/09/06 00:49:10;;;;;;;6.03;2.70;;;17.80;99.90;;;;;;21037553;22;20044;-77
2022/09/06 00:59:11;;;;;;;10.17;3.37;;;17.70;99.90;;;;;;21080582;28;20101;-75
2022/09/06 01:09:26;;;;;;;5.37;2.97;;;17.50;99.90;;;;;;21061831;28;20036;-77
2022/09/06 01:19:45;;;;;;;8.43;4.03;;;17.60;99.90;;;;;;21078532;28;20032;-78
2022/09/06 01:29:54;;;;;;;5.65;3.67;;;17.50;99.90;;;;;;21078575;28;20040;-76
2022/09/06 01:39:55;;;;;;;9.77;3.95;;;17.20;99.90;;;;;;21077561;28;20181;-76
2022/09/06 01:50:20;;;;;;;5.17;3.80;;;17.00;99.90;;;;;;21086137;28;20036;-75
2022/09/06 02:00:22;;;;;;;9.48;3.72;;;17.10;99.90;;;;;;21057613;28;20516;-76
2022/09/06 02:10:47;;;;;;;6.35;3.85;;;17.20;99.90;;;;;;21056576;28;20135;-77
2022/09/06 02:20:55;;;;;;;8.02;3.95;;;17.30;99.90;;;;;;21056236;28;20036;-77
2022/09/06 02:31:01;;;;;;;10.30;4.28;;;17.10;99.90;;;;;;21073549;28;20127;-78
2022/09/06 02:41:03;;;;;;;6.25;3.53;;;17.10;99.90;;;;;;21073047;28;20134;-77
2022/09/06 02:51:06;;;;;;;13.68;3.85;;;17.10;99.90;;;;;;21072579;28;20068;-76
2022/09/06 03:01:06;;;;;;;8.88;4.20;;;17.10;99.90;;;;;;21073583;28;20058;-77
2022/09/06 03:11:07;;;;;;;8.60;3.53;;;16.90;99.90;;;;;;21072046;28;20417;-77
2022/09/06 03:21:08;;;;;;;9.57;3.83;;;16.90;99.90;;;;;;21071530;28;20537;-77
2022/09/06 03:31:09;;;;;;;11.13;3.57;;;16.80;99.90;;;;;;21053588;28;20080;-77
2022/09/06 03:41:10;;;;;;;8.77;4.00;;;16.30;99.90;;;;;;21078448;28;20505;-76
2022/09/06 03:51:11;;;;;;;10.27;4.70;;;16.10;99.90;;;;;;21067563;28;20048;-77
2022/09/06 04:01:12;;;;;;;9.33;4.30;;;16.30;99.90;;;;;;21066328;28;20525;-76
2022/09/06 04:11:13;;;;;;;5.87;3.57;;;16.30;99.90;;;;;;21084602;28;20055;-76
2022/09/06 04:21:14;;;;;;;4.90;4.03;;;16.40;99.90;;;;;;21065220;28;20115;-76
2022/09/06 04:31:14;;;;;;;5.07;3.63;;;16.40;99.90;;;;;;21082750;28;20031;-76
2022/09/06 04:41:17;;;;;;;5.03;3.43;;;16.50;99.90;;;;;;21064118;28;20036;-76
2022/09/06 04:51:19;;;;;;;9.20;3.95;;;16.00;99.90;;;;;;21080142;28;20036;-77
2022/09/06 05:01:19;;;;;;;;;;;16.00;99.90;;;;;;21063019;28;20062;-77
2022/09/06 05:11:20;;;;;;;8.73;3.83;;;16.20;99.90;;;;;;21071135;28;20017;-76
2022/09/06 05:21:21;;;;;;;7.70;4.50;;;16.30;99.90;;;;;;21069757;28;20286;-77
2022/09/06 05:31:26;;;;;;;6.87;4.10;;;16.40;99.90;;;;;;21017853;28;20032;-77
2022/09/06 05:41:27;;;;;;;7.30;3.33;;;16.70;99.90;;;;;;20975298;28;20041;-75
2022/09/06 05:51:28;;;;;;;7.50;3.60;;;16.90;99.90;;;;;;20997072;28;20044;-75
2022/09/06 06:01:29;;;;;;;9.33;4.20;;;17.30;99.90;;;;;;20991704;28;20591;-74
2022/09/06 06:11:30;;;;;;;;;;;17.90;99.90;;;;;;20991811;28;20044;-75
2022/09/06 06:21:32;;;;;;;6.10;3.80;;;18.10;99.90;;;;;;20990905;28;20293;-75
2022/09/06 06:31:34;;;;;;;8.30;4.10;;;18.60;99.90;;;;;;20990350;28;20044;-75
2022/09/06 06:41:35;;;;;;;8.27;4.97;;;18.50;99.90;;;;;;20989891;28;20036;-75
2022/09/06 06:51:36;;;;;;;7.07;4.60;;;18.20;99.90;;;;;;20977122;22;20045;-75
2022/09/06 07:01:37;;;;;;;;;;;17.90;99.90;;;;;;20863765;28;20057;-75
2022/09/06 07:11:38;;;;;;;10.47;5.30;;;17.60;99.90;;;;;;20825654;28;19909;-76
2022/09/06 07:21:39;;;;;;;10.53;5.83;;;17.70;99.90;;;;;;20841854;28;20690;-76
2022/09/06 07:31:39;;;;;;;9.13;4.90;;;18.00;99.90;;;;;;20857476;28;20026;-78
2022/09/06 07:41:41;;;;;;;6.73;3.93;;;18.60;99.90;;;;;;20853776;28;20096;-78
2022/09/06 07:51:43;;;;;;;10.93;4.53;;;18.50;99.90;;;;;;20852979;28;20042;-78
2022/09/06 08:01:43;;;;;;;5.95;4.63;;;18.50;99.90;;;;;;20847171;28;20038;-77
2022/09/06 08:11:44;;;;;;;9.20;5.23;;;18.60;99.90;;;;;;20819817;28;20052;-75
2022/09/06 08:21:45;;;;;;;16.30;7.73;;;18.00;99.90;;;;;;20835997;28;20037;-76
2022/09/06 08:31:46;;;;;;;11.07;6.77;;;17.60;99.90;;;;;;20819140;28;20038;-76
2022/09/06 08:41:54;;;;;;;;;;;17.70;99.90;;;;;;20836338;28;20399;-76
2022/09/06 08:52:33;;;;;;;11.30;7.10;;;18.30;99.90;;;;;;20816605;28;19948;-76
2022/09/06 09:02:42;;;;;;;18.05;7.05;;;18.70;99.90;;;;;;20501304;28;20506;-76
2022/09/06 09:12:45;;;;;;;14.65;7.20;;;19.10;99.90;;;;;;20484592;28;20047;-76
2022/09/06 09:22:47;;;;;;;11.15;5.70;;;19.20;99.90;;;;;;20483791;28;20047;-76
2022/09/06 09:32:48;;;;;;;9.25;6.00;;;20.40;99.90;;;;;;20775231;28;20045;-77
2022/09/06 09:42:50;;;;;;;10.60;6.47;;;22.30;99.90;;;;;;20830219;28;20496;-76
2022/09/06 09:52:50;;;;;;;11.60;6.45;;;21.70;99.90;;;;;;20830467;28;20136;-77
2022/09/06 10:02:51;;;;;;;14.43;7.00;;;21.90;99.90;;;;;;20812133;28;20569;-77
2022/09/06 10:13:10;;;;;;;;;;;23.20;99.90;;;;;;20828534;28;20551;-77
2022/09/06 10:23:20;;;;;;;13.23;6.15;;;24.50;99.90;;;;;;20873387;28;19909;-77
2022/09/06 10:33:30;;;;;;;9.85;5.47;;;23.90;99.90;;;;;;20909356;28;20037;-76
2022/09/06 10:43:45;;;;;;;17.83;5.70;;;23.30;99.90;;;;;;20891293;28;20525;-76
2022/09/06 10:53:52;;;;;;;10.57;5.40;;;23.90;99.90;;;;;;20920956;28;20512;-76
2022/09/06 11:03:56;;;;;;;8.77;5.43;;;23.00;99.90;;;;;;20925661;28;20041;-76
2022/09/06 11:13:57;;;;;;;15.95;5.78;;;22.60;99.90;;;;;;20907470;28;20048;-75
2022/09/06 11:24:01;;;;;;;13.43;4.65;;;22.30;99.90;;;;;;20925291;28;20518;-76
2022/09/06 11:34:23;;;;;;;11.27;3.70;;;22.20;99.90;;;;;;20922699;28;20127;-76
2022/09/06 11:44:48;;;;;;;20.33;4.50;;;22.30;99.90;;;;;;20921418;28;20045;-77
2022/09/06 11:54:52;;;;;;;17.40;4.60;;;21.90;99.90;;;;;;20926683;28;20041;-78
2022/09/06 12:05:19;;;;;;;14.90;4.43;;;21.50;99.90;;;;;;20927306;28;20034;-78
2022/09/06 12:15:42;;;;;;;8.55;2.00;;;21.30;99.90;;;;;;20879879;28;20052;-78
2022/09/06 12:25:53;;;;;;;6.18;1.25;;;20.80;99.90;;;;;;20922263;28;20403;-79
2022/09/06 12:36:16;;;;;;;11.60;1.83;;;20.40;99.90;;;;;;20927504;28;20045;-77
2022/09/06 12:46:17;;;;;;;7.97;1.27;;;20.50;99.90;;;;;;20917948;28;20279;-78
2022/09/06 12:56:23;;;;;;;6.10;1.20;;;19.80;99.90;;;;;;20841918;22;20534;-76
2022/09/06 13:06:25;;;;;;;2.38;1.10;;;19.50;99.90;;;;;;20753199;28;20034;-76
2022/09/06 13:16:35;;;;;;;4.55;1.30;;;20.00;99.90;;;;;;20748568;28;20042;-76
2022/09/06 13:26:38;;;;;;;5.93;1.42;;;20.20;99.90;;;;;;20748154;28;20562;-75
2022/09/06 13:36:39;;;;;;;2.45;1.42;;;20.50;99.90;;;;;;20742123;28;20569;-75
2022/09/06 13:46:40;;;;;;;3.55;1.52;;;20.20;99.90;;;;;;20746925;28;20049;-76
2022/09/06 13:56:43;;;;;;;1.77;1.20;;;20.20;99.90;;;;;;20746001;28;20033;-75
2022/09/06 14:06:45;;;;;;;7.00;1.80;;;20.40;99.90;;;;;;20749946;28;20078;-79
2022/09/06 14:16:46;;;;;;;4.40;2.20;;;20.60;99.90;;;;;;20767578;28;20497;-78
2022/09/06 14:26:47;;;;;;;;;;;20.50;99.90;;;;;;20767374;28;20038;-77
2022/09/06 14:36:48;;;;;;;1.27;0.63;;;20.30;99.90;;;;;;20750850;28;20387;-78
2022/09/06 14:46:53;;;;;;;7.47;1.20;;;19.70;99.90;;;;;;20747166;28;20042;-76
2022/09/06 14:56:54;;;;;;;4.20;0.95;;;19.60;99.90;;;;;;20740763;28;20427;-78
2022/09/06 15:06:55;;;;;;;3.87;1.13;;;19.50;99.90;;;;;;20762182;28;20073;-78
2022/09/06 15:16:58;;;;;;;3.57;1.17;;;19.20;99.90;;;;;;20744742;28;20037;-80
2022/09/06 15:26:59;;;;;;;3.78;1.42;;;19.40;99.90;;;;;;20755885;28;20101;-79
2022/09/06 15:37:00;;;;;;;4.50;1.80;;;19.70;99.90;;;;;;20745366;28;20053;-79
2022/09/06 15:47:01;;;;;;;4.90;2.80;;;19.50;99.90;;;;;;20738732;28;20038;-79
2022/09/06 15:57:02;;;;;;;11.33;3.93;;;19.40;99.90;;;;;;20739016;28;20045;-78
2022/09/06 16:07:04;;;;;;;6.40;2.85;;;19.00;99.90;;;;;;20772270;28;20140;-79
2022/09/06 16:17:05;;;;;;;5.70;2.40;;;19.10;99.90;;;;;;20771513;28;20034;-78
2022/09/06 16:27:06;;;;;;;6.80;2.57;;;19.10;99.90;;;;;;20771424;28;20044;-79
2022/09/06 16:37:07;;;;;;;6.47;2.33;;;19.10;99.90;;;;;;20751244;28;20515;-79
2022/09/06 16:47:08;;;;;;;4.43;1.77;;;19.20;99.90;;;;;;20767923;28;20046;-77
2022/09/06 16:57:08;;;;;;;4.83;2.10;;;19.20;99.90;;;;;;20765589;28;20457;-78
2022/09/06 17:07:09;;;;;;;4.77;2.13;;;18.70;99.90;;;;;;20768967;28;20041;-79
2022/09/06 17:17:12;;;;;;;6.50;2.20;;;18.80;99.90;;;;;;20768456;28;20102;-79
2022/09/06 17:27:12;;;;;;;5.93;2.78;;;18.70;99.90;;;;;;20769462;28;20582;-79
2022/09/06 17:37:14;;;;;;;10.60;2.60;;;18.40;99.90;;;;;;20770433;28;20074;-79
2022/09/06 17:47:15;;;;;;;5.53;2.70;;;18.20;99.90;;;;;;20770654;28;20037;-79
2022/09/06 17:57:16;;;;;;;4.07;2.17;;;18.10;99.90;;;;;;20770054;28;20044;-79
2022/09/06 18:07:17;;;;;;;6.63;1.80;;;18.00;99.90;;;;;;20769470;28;20034;-77
2022/09/06 18:17:18;;;;;;;4.95;2.42;;;17.80;99.90;;;;;;20768180;28;20511;-79
2022/09/06 18:27:19;;;;;;;8.50;3.10;;;17.70;99.90;;;;;;20751487;28;20034;-78
2022/09/06 18:37:21;;;;;;;10.18;3.78;;;17.70;99.90;;;;;;20769192;28;20054;-78
2022/09/06 18:47:22;;;;;;;10.20;3.30;;;17.60;99.90;;;;;;20785097;22;20083;-77
2022/09/06 18:57:23;;;;;;;5.83;2.73;;;17.50;99.90;;;;;;20903671;28;20061;-76
2022/09/06 19:07:24;;;;;;;7.67;2.90;;;17.50;99.90;;;;;;20808267;28;20046;-77
2022/09/06 19:17:25;;;;;;;6.05;3.25;;;17.50;99.90;;;;;;20841515;28;20400;-76
2022/09/06 19:27:26;;;;;;;10.57;2.63;;;17.40;99.90;;;;;;20839680;28;20038;-76
2022/09/06 19:37:28;;;;;;;5.80;2.20;;;17.20;99.90;;;;;;20838972;28;20043;-76
2022/09/06 19:47:29;;;;;;;2.70;1.85;;;17.10;99.90;;;;;;20820568;28;20049;-76
2022/09/06 19:57:30;;;;;;;5.70;2.03;;;16.90;99.90;;;;;;20837670;28;20535;-77
2022/09/06 20:07:31;;;;;;;3.73;2.17;;;16.80;99.90;;;;;;20820288;28;20399;-76
2022/09/06 20:17:33;;;;;;;3.37;1.73;;;16.90;99.90;;;;;;20835971;28;20124;-77
2022/09/06 20:27:33;;;;;;;;;;;16.90;99.90;;;;;;20809187;28;20115;-77
2022/09/06 20:37:37;;;;;;;9.10;3.13;;;16.80;99.90;;;;;;20809896;28;19913;-77
2022/09/06 20:47:38;;;;;;;5.00;1.67;;;16.60;99.90;;;;;;20776899;28;20785;-77
2022/09/06 20:57:39;;;;;;;5.80;2.10;;;16.80;99.90;;;;;;20791311;28;20025;-77
2022/09/06 21:07:40;;;;;;;11.63;2.20;;;16.80;99.90;;;;;;20771421;28;20049;-77
2022/09/06 21:17:41;;;;;;;7.00;2.00;;;16.80;99.90;;;;;;20783421;28;20405;-79
2022/09/06 21:27:42;;;;;;;7.43;2.50;;;16.90;99.90;;;;;;20798221;28;20037;-79
2022/09/06 21:37:43;;;;;;;5.65;2.00;;;16.50;99.90;;;;;;20776879;28;20038;-77
2022/09/06 21:47:43;;;;;;;5.10;2.27;;;16.50;99.90;;;;;;20801802;28;20034;-79
2022/09/06 21:57:44;;;;;;;3.17;1.80;;;16.60;99.90;;;;;;20825831;28;20133;-79
2022/09/06 22:07:45;;;;;;;6.27;2.30;;;16.70;99.90;;;;;;20781837;28;20050;-79
2022/09/06 22:17:47;;;;;;;4.43;2.30;;;16.70;99.90;;;;;;20764669;28;20381;-78
2022/09/06 22:27:48;;;;;;;7.18;2.80;;;16.70;99.90;;;;;;20745695;28;20045;-78
2022/09/06 22:37:48;;;;;;;7.53;2.63;;;16.60;99.90;;;;;;20802667;28;20068;-79
2022/09/06 22:47:49;;;;;;;3.63;2.30;;;16.50;99.90;;;;;;20824711;28;20442;-79
2022/09/06 22:57:50;;;;;;;5.70;2.30;;;16.50;99.90;;;;;;20842571;28;20048;-78
2022/09/06 23:07:51;;;;;;;5.90;2.67;;;16.50;99.90;;;;;;20842229;28;20057;-78
2022/09/06 23:17:52;;;;;;;6.03;3.30;;;16.00;99.90;;;;;;20823296;28;20048;-78
2022/09/06 23:27:53;;;;;;;10.40;4.53;;;16.10;99.90;;;;;;20842066;28;20069;-78
2022/09/06 23:37:54;;;;;;;5.63;3.13;;;16.00;99.90;;;;;;20822889;28;20046;-78
2022/09/06 23:47:55;;;;;;;6.40;3.13;;;16.10;99.90;;;;;;20839519;28;20044;-79
2022/09/06 23:57:56;;;;;;;6.13;3.50;;;15.90;99.90;;;;;;20846325;28;20045;-79
